Time;durP1;ratioP1;P1;durP2;ratioP2;P2;SDS_P1;SDS_P2;PMS_P1;PMS_P2;Temp;Humidity;BMP_temperature;BMP_pressure;BME280_temperature;BME280_humidity;BME280_pressure;Samples;Min_cycle;Max_cycle;Signal;HPM_P1;HPM_P2
2023/04/26 00:02:10;;;;;;;;;23.50;22.75;;;;;10.70;50.42;101362.56;5060994;28;45289;-62
2023/04/26 00:04:35;;;;;;;;;31.75;24.25;;;;;10.67;50.51;101361.69;5060837;28;45455;-62
2023/04/26 00:33:56;;;;;;;;;34.00;30.75;;;;;10.52;50.60;101342.47;5060481;28;45233;-62
2023/04/26 00:36:21;;;;;;;;;32.25;30.25;;;;;10.52;51.00;101341.59;5042126;28;46886;-62
2023/04/26 00:38:46;;;;;;;;;35.00;29.75;;;;;10.52;50.55;101337.22;5059950;28;45151;-62
2023/04/26 00:41:12;;;;;;;;;29.75;28.50;;;;;10.53;50.46;101348.59;5060131;28;45196;-62
2023/04/26 00:43:39;;;;;;;;;27.75;26.00;;;;;10.49;50.65;101336.34;5059213;28;45280;-62
2023/04/26 00:46:05;;;;;;;;;31.75;26.00;;;;;10.49;50.68;101337.22;5060211;28;45310;-62
2023/04/26 00:48:32;;;;;;;;;35.75;29.00;;;;;10.47;51.13;101333.72;5059911;28;45332;-62
2023/04/26 00:50:58;;;;;;;;;29.50;27.25;;;;;10.48;50.68;101334.63;5042199;28;45344;-62
2023/04/26 00:53:24;;;;;;;;;31.75;29.00;;;;;10.46;50.52;101334.59;5042219;28;45348;-62
2023/04/26 00:55:50;;;;;;;;;32.50;27.75;;;;;10.42;50.87;101329.38;5059663;28;46589;-62
2023/04/26 00:58:17;;;;;;;;;29.25;25.75;;;;;10.44;50.87;101327.59;5059940;28;45404;-62
2023/04/26 01:00:42;;;;;;;;;30.75;24.00;;;;;10.41;50.69;101323.25;5060315;28;45275;-61
2023/04/26 01:03:08;;;;;;;;;32.00;28.25;;;;;10.40;50.70;101325.00;5060036;28;45567;-62
2023/04/26 01:05:35;;;;;;;;;28.50;26.00;;;;;10.36;50.78;101323.28;5059734;28;45945;-61
2023/04/26 01:08:03;;;;;;;;;31.25;27.25;;;;;10.37;50.76;101322.38;5059808;28;45326;-62
2023/04/26 01:10:30;;;;;;;;;35.00;29.50;;;;;10.35;50.63;101324.13;5059790;28;45424;-62
2023/04/26 01:12:56;;;;;;;;;29.00;23.25;;;;;10.34;50.88;101317.13;5060056;28;45692;-62
2023/04/26 01:15:22;;;;;;;;;28.00;24.00;;;;;10.33;50.77;101311.88;5059729;28;46243;-62
2023/04/26 01:17:48;;;;;;;;;30.75;25.75;;;;;10.27;50.96;101293.50;5059741;28;45245;-62
2023/04/26 01:20:13;;;;;;;;;24.50;23.00;;;;;10.26;51.04;101292.63;5060074;28;45438;-61
2023/04/26 01:22:39;;;;;;;;;28.50;25.50;;;;;10.19;51.02;101296.16;5059724;28;45511;-62
2023/04/26 01:25:08;;;;;;;;;25.25;22.00;;;;;10.25;51.10;101304.88;5059362;28;46552;-62
2023/04/26 01:27:33;;;;;;;;;26.50;25.25;;;;;10.24;51.07;101304.91;5059754;28;45305;-62
2023/04/26 01:29:59;;;;;;;;;27.75;25.50;;;;;10.22;50.83;101302.25;5059700;28;45491;-62
2023/04/26 01:32:24;;;;;;;;;32.50;28.75;;;;;10.18;50.95;101291.78;5059485;28;45309;-62
2023/04/26 01:34:50;;;;;;;;;27.00;24.25;;;;;10.19;50.97;101288.28;5062473;28;45399;-62
2023/04/26 01:37:15;;;;;;;;;22.00;19.75;;;;;10.12;50.96;101271.66;5062522;28;51012;-61
2023/04/26 01:39:40;;;;;;;;;29.25;25.50;;;;;10.14;51.08;101285.66;5044832;28;45289;-62
2023/04/26 01:42:06;;;;;;;;;28.75;26.50;;;;;10.12;50.88;101283.94;5045205;28;45577;-62
2023/04/26 01:44:31;;;;;;;;;31.00;27.25;;;;;10.06;51.12;101285.69;5044805;28;46143;-62
2023/04/26 01:46:57;;;;;;;;;28.00;24.50;;;;;10.01;50.97;101276.09;5063148;28;45190;-61
2023/04/26 01:49:22;;;;;;;;;26.25;24.25;;;;;10.05;51.06;101288.31;5063092;28;45478;-62
2023/04/26 01:51:47;;;;;;;;;25.50;22.75;;;;;10.03;51.18;101283.06;5063002;28;45342;-62
2023/04/26 01:54:13;;;;;;;;;31.50;26.25;;;;;9.91;50.95;101275.22;5062519;28;46276;-62
2023/04/26 01:56:38;;;;;;;;;29.50;26.50;;;;;9.99;50.94;101293.63;5062707;28;45162;-62
2023/04/26 01:59:03;;;;;;;;;28.25;27.25;;;;;9.97;51.09;101296.22;5062964;28;45195;-61
2023/04/26 02:01:29;;;;;;;;;30.00;24.75;;;;;9.91;51.34;101288.34;5062735;28;45246;-61
2023/04/26 02:03:54;;;;;;;;;30.75;27.75;;;;;9.92;50.93;101296.25;5062673;28;46259;-61
2023/04/26 02:06:20;;;;;;;;;36.25;29.75;;;;;9.90;51.13;101294.50;5062450;28;45258;-62
2023/04/26 02:08:45;;;;;;;;;27.00;24.50;;;;;9.88;51.06;101281.38;5062897;28;45372;-62
2023/04/26 02:11:11;;;;;;;;;23.75;23.75;;;;;9.86;50.93;101277.88;5062244;28;45258;-62
2023/04/26 02:13:36;;;;;;;;;22.75;22.00;;;;;9.84;50.98;101277.00;5062072;28;45276;-61
2023/04/26 02:16:02;;;;;;;;;24.00;22.25;;;;;9.82;50.77;101264.75;5044459;28;45369;-62
2023/04/26 02:18:28;;;;;;;;;20.50;20.50;;;;;9.79;51.18;101256.91;5062595;28;45375;-62
2023/04/26 02:20:54;;;;;;;;;26.00;18.50;;;;;9.76;51.16;101279.66;5062316;28;45389;-61
2023/04/26 02:23:19;;;;;;;;;21.75;19.50;;;;;9.76;51.34;101278.78;5062507;28;45360;-61
2023/04/26 02:25:48;;;;;;;;;25.50;23.00;;;;;9.75;51.20;101284.91;5043678;28;45349;-61
2023/04/26 02:28:15;;;;;;;;;20.50;19.25;;;;;9.71;51.13;101286.66;5062507;28;45174;-62
2023/04/26 02:30:40;;;;;;;;;27.75;24.75;;;;;9.71;51.13;101288.41;5062105;28;45405;-62
2023/04/26 02:33:07;;;;;;;;;24.50;17.50;;;;;9.70;51.15;101281.44;5062479;28;46064;-62
2023/04/26 02:35:32;;;;;;;;;22.00;18.75;;;;;9.67;51.09;101279.69;5062088;28;45403;-62
2023/04/26 02:37:58;;;;;;;;;19.00;18.00;;;;;9.66;51.18;101288.44;5062159;28;45414;-62
2023/04/26 02:40:23;;;;;;;;;7.50;4.75;;;;;9.65;51.43;101284.06;5061776;28;45590;-62
2023/04/26 02:42:48;;;;;;;;;20.25;19.25;;;;;9.64;51.03;101292.78;5062022;28;51369;-62
2023/04/26 02:45:14;;;;;;;;;20.25;19.50;;;;;9.66;51.35;101282.28;5061746;28;45447;-62
2023/04/26 02:47:39;;;;;;;;;21.75;19.75;;;;;9.60;51.14;101278.81;5062261;28;45384;-62
2023/04/26 02:50:08;;;;;;;;;23.50;21.00;;;;;9.60;51.35;101272.69;5061903;28;45400;-61
2023/04/26 02:52:35;;;;;;;;;24.75;18.25;;;;;9.57;51.37;101265.69;5043985;28;47279;-61
2023/04/26 02:55:03;;;;;;;;;23.00;18.50;;;;;9.61;51.33;101271.81;5061494;28;45432;-61
2023/04/26 02:57:28;;;;;;;;;20.00;20.00;;;;;9.59;51.27;101268.31;5061951;28;45296;-61
2023/04/26 02:59:54;;;;;;;;;22.50;18.50;;;;;9.59;51.10;101276.19;5061712;28;45273;-61
2023/04/26 03:02:20;;;;;;;;;21.75;20.75;;;;;9.56;51.21;101276.22;5043642;28;47293;-61
2023/04/26 03:04:46;;;;;;;;;19.50;19.25;;;;;9.56;51.11;101268.34;5061630;28;45348;-61
2023/04/26 03:07:12;;;;;;;;;18.25;17.00;;;;;9.54;51.25;101270.06;5061689;28;45421;-61
2023/04/26 03:09:37;;;;;;;;;22.50;20.00;;;;;9.57;51.56;101264.81;5043383;28;45436;-61
2023/04/26 03:12:05;;;;;;;;;20.25;16.75;;;;;9.56;51.33;101270.97;5061701;28;45999;-61
2023/04/26 03:14:30;;;;;;;;;16.00;16.00;;;;;9.55;51.49;101272.69;5061830;28;45441;-61
2023/04/26 03:16:56;;;;;;;;;19.25;17.75;;;;;9.56;51.49;101274.44;5061472;28;45446;-61
2023/04/26 03:19:21;;;;;;;;;20.75;18.75;;;;;9.54;50.95;101270.06;5061583;28;45398;-61
2023/04/26 03:21:46;;;;;;;;;26.25;21.50;;;;;9.51;51.51;101270.97;5061440;28;52151;-61
2023/04/26 03:24:12;;;;;;;;;24.00;17.50;;;;;9.54;51.33;101265.69;5061159;28;45311;-61
2023/04/26 03:26:37;;;;;;;;;19.25;16.75;;;;;9.53;51.26;101266.56;5043405;28;45402;-61
2023/04/26 03:29:04;;;;;;;;;21.25;19.75;;;;;9.54;51.46;101268.31;5061415;28;45288;-61
2023/04/26 03:31:29;;;;;;;;;18.25;16.25;;;;;9.54;51.35;101262.19;5061414;28;45316;-61
2023/04/26 03:33:54;;;;;;;;;17.50;16.25;;;;;9.50;51.27;101268.34;5061205;28;45309;-61
2023/04/26 03:36:20;;;;;;;;;23.25;21.75;;;;;9.51;51.40;101264.81;5043404;28;45316;-61
2023/04/26 03:38:45;;;;;;;;;17.75;16.00;;;;;9.51;51.04;101265.72;5059566;28;45554;-61
2023/04/26 03:41:11;;;;;;;;;14.00;14.00;;;;;9.52;51.46;101267.47;5059831;28;45328;-61
2023/04/26 03:43:36;;;;;;;;;21.00;17.25;;;;;9.50;51.55;101257.84;5059664;28;45235;-61
2023/04/26 03:46:02;;;;;;;;;35.00;30.25;;;;;9.51;51.37;101256.94;5059718;28;47663;-61
2023/04/26 03:48:27;;;;;;;;;16.50;14.00;;;;;9.46;51.55;101248.22;5059654;28;45377;-61
2023/04/26 03:50:52;;;;;;;;;19.25;17.25;;;;;9.50;51.54;101252.59;5059605;28;45225;-61
2023/04/26 03:53:18;;;;;;;;;16.25;16.25;;;;;9.49;51.38;101249.09;5024827;28;45269;-61
2023/04/26 03:55:44;;;;;;;;;20.25;17.25;;;;;9.47;51.27;101253.47;5059343;28;45251;-61
2023/04/26 03:58:09;;;;;;;;;17.25;14.50;;;;;9.48;51.21;101255.19;5058994;28;45435;-61
2023/04/26 04:00:38;;;;;;;;;19.50;19.50;;;;;9.48;51.42;101254.34;5059746;28;46647;-61
2023/04/26 04:03:03;;;;;;;;;23.00;20.00;;;;;9.46;51.49;101256.06;5059322;28;45390;-61
2023/04/26 04:05:29;;;;;;;;;16.25;16.00;;;;;9.45;51.54;101255.22;5059412;28;45323;-61
2023/04/26 04:07:55;;;;;;;;;17.00;17.00;;;;;9.44;51.61;101249.06;5058958;28;50389;-61
2023/04/26 04:10:22;;;;;;;;;43.75;36.25;;;;;9.48;51.30;101249.09;5059154;28;45388;-61
2023/04/26 04:12:47;;;;;;;;;15.50;13.25;;;;;9.47;51.61;101248.22;5041095;28;45363;-61
2023/04/26 04:15:12;;;;;;;;;21.25;18.00;;;;;9.46;51.90;101245.59;5059356;28;45281;-61
2023/04/26 04:17:38;;;;;;;;;16.25;16.25;;;;;9.48;51.52;101249.94;5040910;28;45490;-61
2023/04/26 04:20:06;;;;;;;;;21.00;15.50;;;;;9.50;51.49;101257.84;5059222;28;45934;-61
2023/04/26 04:22:31;;;;;;;;;16.25;15.50;;;;;9.48;51.21;101257.81;5058958;28;45316;-61
2023/04/26 04:24:57;;;;;;;;;21.00;19.25;;;;;9.50;51.56;101257.84;5058902;28;45289;-61
2023/04/26 04:27:22;;;;;;;;;17.25;16.75;;;;;9.49;51.45;101258.72;5040969;28;45497;-61
2023/04/26 04:29:47;;;;;;;;;20.50;17.00;;;;;9.48;51.54;101263.06;5058872;28;46072;-61
2023/04/26 04:32:14;;;;;;;;;22.25;19.25;;;;;9.48;51.46;101265.69;5058788;28;45366;-61
2023/04/26 04:34:40;;;;;;;;;22.75;17.75;;;;;9.49;51.49;101266.59;5041061;28;45236;-61
2023/04/26 04:37:06;;;;;;;;;15.00;14.75;;;;;9.46;51.46;101256.06;5019040;28;1131105;-61
2023/04/26 04:39:31;;;;;;;;;19.00;17.75;;;;;9.46;51.49;101242.97;5059756;28;46160;-62
2023/04/26 04:41:57;;;;;;;;;21.50;16.25;;;;;9.48;51.41;101249.09;5060165;28;45365;-61
2023/04/26 04:44:23;;;;;;;;;15.00;14.25;;;;;9.42;51.28;101245.59;5060480;28;45249;-62
2023/04/26 04:46:48;;;;;;;;;16.00;14.75;;;;;9.49;51.37;101253.47;5060146;28;45240;-61
2023/04/26 04:49:14;;;;;;;;;13.25;11.75;;;;;9.46;51.69;101256.06;5060098;28;46209;-61
2023/04/26 04:51:40;;;;;;;;;16.75;16.25;;;;;9.49;51.48;101258.72;5060038;28;45295;-61
2023/04/26 04:54:13;;;;;;;;;20.25;18.25;;;;;9.49;51.58;101256.09;5059820;28;45265;-61
2023/04/26 04:56:38;;;;;;;;;16.50;16.00;;;;;9.48;51.77;101254.34;5059906;28;45475;-61
2023/04/26 04:59:04;;;;;;;;;21.00;20.75;;;;;9.50;51.59;101263.09;5059803;28;46056;-62
2023/04/26 05:01:32;;;;;;;;;24.00;19.50;;;;;9.49;51.38;101261.34;5059856;28;45252;-61
2023/04/26 05:03:58;;;;;;;;;54.75;43.00;;;;;9.46;51.70;101251.72;5060114;28;45276;-61
2023/04/26 05:06:24;;;;;;;;;19.75;18.25;;;;;9.48;51.56;101263.06;5059779;28;45308;-61
2023/04/26 05:08:49;;;;;;;;;19.75;17.00;;;;;9.52;51.55;101266.56;5058502;28;46558;-63
2023/04/26 05:11:15;;;;;;;;;16.50;15.50;;;;;9.53;51.63;101268.31;5059763;28;45398;-61
2023/04/26 05:13:40;;;;;;;;;16.25;15.75;;;;;9.51;51.47;101267.44;5060008;28;45211;-62
2023/04/26 05:16:06;;;;;;;;;16.25;15.00;;;;;9.51;51.78;101256.94;5059586;28;48568;-61
2023/04/26 05:18:31;;;;;;;;;19.25;19.25;;;;;9.53;51.77;101256.06;5059598;28;46399;-62
2023/04/26 05:20:56;;;;;;;;;16.75;15.00;;;;;9.53;51.54;101248.19;5059791;28;45198;-61
2023/04/26 05:23:22;;;;;;;;;14.00;13.00;;;;;9.53;51.45;101253.44;5059947;28;45228;-62
2023/04/26 05:25:47;;;;;;;;;16.00;14.25;;;;;9.54;51.43;101254.34;5059395;28;45238;-62
2023/04/26 05:28:13;;;;;;;;;14.50;14.00;;;;;9.53;51.71;101263.94;5059540;28;46300;-61
2023/04/26 05:30:39;;;;;;;;;18.50;14.50;;;;;9.53;51.39;101265.69;5058779;28;45447;-61
2023/04/26 05:33:05;;;;;;;;;19.25;15.25;;;;;9.53;51.54;101271.81;5059840;28;45284;-61
2023/04/26 05:35:31;;;;;;;;;17.00;14.25;;;;;9.45;51.69;101257.84;5058048;28;45533;-62
2023/04/26 05:37:56;;;;;;;;;12.75;10.75;;;;;9.50;51.55;101261.31;5059257;28;45327;-61
2023/04/26 05:40:21;;;;;;;;;15.75;14.00;;;;;9.51;51.60;101270.97;5059369;28;45276;-62
2023/04/26 05:42:47;;;;;;;;;15.75;15.75;;;;;9.54;51.59;101272.69;5059695;28;45372;-61
2023/04/26 05:45:12;;;;;;;;;16.00;14.50;;;;;9.52;51.34;101263.94;5041479;28;45537;-61
2023/04/26 05:47:38;;;;;;;;;15.00;12.75;;;;;9.55;51.25;101271.81;5059532;28;45428;-61
2023/04/26 05:50:03;;;;;;;;;16.25;14.75;;;;;9.55;51.57;101271.81;5059244;28;45270;-61
2023/04/26 05:52:29;;;;;;;;;20.00;15.75;;;;;9.57;51.47;101283.19;5059661;28;45336;-61
2023/04/26 05:54:55;;;;;;;;;15.25;12.25;;;;;9.54;51.49;101273.56;5058914;28;45474;-61
2023/04/26 05:57:20;;;;;;;;;14.00;10.75;;;;;9.57;51.55;101284.06;5059384;28;45320;-61
2023/04/26 05:59:46;;;;;;;;;18.50;15.00;;;;;9.58;51.28;101283.19;5059124;28;45214;-61
2023/04/26 06:02:11;;;;;;;;;17.50;15.50;;;;;9.59;51.47;101287.53;5059426;28;45337;-62
2023/04/26 06:04:36;;;;;;;;;12.00;11.00;;;;;9.58;51.48;101274.44;5041044;28;45595;-62
2023/04/26 06:07:02;;;;;;;;;12.25;12.25;;;;;9.60;51.37;101277.94;5058897;28;45948;-61
2023/04/26 06:09:29;;;;;;;;;17.25;13.25;;;;;9.54;51.34;101270.06;5040614;28;45232;-62
2023/04/26 06:11:55;;;;;;;;;13.50;12.00;;;;;9.63;51.57;101287.56;5058017;28;45323;-61
2023/04/26 06:14:21;;;;;;;;;16.75;15.25;;;;;9.62;51.82;101291.91;5058856;28;45433;-62
2023/04/26 06:16:46;;;;;;;;;19.50;16.75;;;;;9.61;51.71;101290.19;5059110;28;45515;-61
2023/04/26 06:19:12;;;;;;;;;17.00;15.75;;;;;9.65;51.38;101289.31;5059085;28;45246;-61
2023/04/26 06:21:37;;;;;;;;;25.00;21.25;;;;;9.65;51.46;101291.94;5062592;28;45355;-61
2023/04/26 06:24:02;;;;;;;;;16.50;14.50;;;;;9.66;51.56;101284.91;5061942;28;45657;-62
2023/04/26 06:26:28;;;;;;;;;18.00;15.50;;;;;9.69;51.81;101287.56;5062383;28;46449;-61
2023/04/26 06:28:53;;;;;;;;;15.00;13.00;;;;;9.71;51.54;101289.28;5062155;28;45292;-61
2023/04/26 06:31:20;;;;;;;;;14.50;12.00;;;;;9.70;51.42;101290.16;5062541;28;45293;-62
2023/04/26 06:33:45;;;;;;;;;15.50;13.50;;;;;9.69;51.79;101280.53;5062039;28;45412;-61
2023/04/26 06:36:12;;;;;;;;;13.00;11.75;;;;;9.74;51.68;101275.28;5043855;28;48046;-61
2023/04/26 06:38:37;;;;;;;;;12.50;11.00;;;;;9.77;51.27;101280.50;5043427;28;45510;-61
2023/04/26 06:41:03;;;;;;;;;14.00;14.00;;;;;9.76;51.36;101270.91;5043860;28;45303;-61
2023/04/26 06:43:28;;;;;;;;;15.75;14.50;;;;;9.70;51.37;101258.66;5062038;28;45286;-61
2023/04/26 06:45:53;;;;;;;;;12.75;12.75;;;;;9.80;51.49;101271.75;5062071;28;46299;-61
2023/04/26 06:48:19;;;;;;;;;13.00;12.00;;;;;9.83;51.46;101279.66;5062004;28;45581;-61
2023/04/26 06:50:45;;;;;;;;;17.75;15.25;;;;;9.84;51.11;101281.41;5062007;28;45280;-61
2023/04/26 06:53:10;;;;;;;;;15.75;14.75;;;;;9.85;51.40;101275.25;5060455;28;45335;-61
2023/04/26 06:55:35;;;;;;;;;12.50;12.50;;;;;9.90;51.49;101284.88;5061741;28;46359;-61
2023/04/26 06:58:01;;;;;;;;;16.00;16.00;;;;;9.94;51.51;101291.00;5061560;28;45368;-61
2023/04/26 07:00:27;;;;;;;;;28.50;25.50;;;;;9.95;51.32;101289.22;5062003;28;45312;-62
2023/04/26 07:02:52;;;;;;;;;24.75;23.25;;;;;9.98;51.39;101281.34;5061545;28;45311;-61
2023/04/26 07:05:18;;;;;;;;;17.00;15.75;;;;;10.02;51.32;101288.34;5061631;28;46131;-62
2023/04/26 07:07:43;;;;;;;;;19.25;15.25;;;;;10.04;51.56;101292.69;5043423;28;45922;-62
2023/04/26 07:10:08;;;;;;;;;18.50;17.00;;;;;10.06;51.56;101287.44;5061672;28;45376;-62
2023/04/26 07:12:34;;;;;;;;;16.75;14.25;;;;;10.11;51.42;101284.81;5061387;28;45410;-60
2023/04/26 07:15:00;;;;;;;;;17.00;13.75;;;;;10.15;51.33;101289.16;5060232;28;47253;-61
2023/04/26 07:17:26;;;;;;;;;17.75;15.75;;;;;10.17;51.33;101287.41;5061215;28;45361;-61
2023/04/26 07:19:51;;;;;;;;;17.75;14.75;;;;;10.18;51.43;101292.66;5043583;28;45246;-61
2023/04/26 07:22:16;;;;;;;;;15.00;13.75;;;;;10.23;51.29;101290.00;5026671;28;45970;-61
2023/04/26 07:24:42;;;;;;;;;12.50;12.50;;;;;10.28;51.41;101290.88;5059858;28;47111;-61
2023/04/26 07:27:07;;;;;;;;;15.00;10.00;;;;;10.31;51.21;101292.59;5043180;28;45621;-61
2023/04/26 07:29:32;;;;;;;;;14.00;14.00;;;;;10.34;51.62;101290.84;5061683;28;45253;-61
2023/04/26 07:31:58;;;;;;;;;18.25;14.25;;;;;10.42;51.38;101292.59;5055732;28;45542;-61
2023/04/26 07:34:24;;;;;;;;;15.25;11.00;;;;;10.45;51.41;101293.44;5041024;28;46884;-62
2023/04/26 07:36:49;;;;;;;;;12.50;11.50;;;;;10.50;51.08;101296.06;5040690;28;45246;-62
2023/04/26 07:39:15;;;;;;;;;17.25;13.75;;;;;10.53;51.30;101286.41;5040805;28;45247;-60
2023/04/26 07:41:41;;;;;;;;;15.25;14.50;;;;;10.59;51.63;101282.00;5040806;28;45544;-62
2023/04/26 07:44:06;;;;;;;;;10.25;10.25;;;;;10.64;51.62;101283.72;5041011;28;45408;-61
2023/04/26 07:46:33;;;;;;;;;15.50;14.00;;;;;10.69;51.63;101279.31;5040748;28;45385;-61
2023/04/26 07:48:58;;;;;;;;;19.25;17.75;;;;;10.72;51.50;101271.38;5040987;28;45392;-61
2023/04/26 07:51:24;;;;;;;;;23.75;16.25;;;;;10.78;51.43;101266.97;5040673;28;45290;-61
2023/04/26 07:53:49;;;;;;;;;17.25;13.50;;;;;10.85;51.51;101272.19;5040468;28;46293;-62
2023/04/26 07:56:14;;;;;;;;;20.25;18.00;;;;;10.91;51.64;101276.53;5040455;28;45321;-61
2023/04/26 07:58:40;;;;;;;;;17.50;14.50;;;;;10.95;51.33;101267.72;5039438;28;45875;-61
2023/04/26 08:01:06;;;;;;;;;19.00;14.00;;;;;11.02;51.42;101264.19;5040641;28;45489;-62
2023/04/26 08:03:31;;;;;;;;;7.00;6.00;;;;;11.08;51.43;101267.63;5040668;28;46074;-62
2023/04/26 08:05:57;;;;;;;;;13.75;12.25;;;;;11.12;51.50;101259.72;5049761;28;45324;-61
2023/04/26 08:08:25;;;;;;;;;16.50;11.25;;;;;11.22;51.46;101273.69;5060938;28;45228;-61
2023/04/26 08:10:50;;;;;;;;;15.25;13.75;;;;;11.27;51.44;101261.34;5060369;28;45425;-62
2023/04/26 08:13:15;;;;;;;;;12.75;11.75;;;;;11.32;51.39;101267.44;5060285;28;50579;-62
2023/04/26 08:15:41;;;;;;;;;14.75;12.00;;;;;11.38;51.33;101264.75;5060723;28;45348;-61
2023/04/26 08:18:06;;;;;;;;;14.50;10.00;;;;;11.48;51.39;101264.66;5059206;28;45360;-61
2023/04/26 08:20:32;;;;;;;;;11.00;9.75;;;;;11.48;51.37;101251.50;5060525;28;45582;-62
2023/04/26 08:22:58;;;;;;;;;13.75;10.00;;;;;11.64;51.46;101261.00;5060418;28;45253;-62
2023/04/26 08:25:24;;;;;;;;;12.75;11.00;;;;;11.73;51.39;101265.28;5060198;28;45334;-62
2023/04/26 08:27:50;;;;;;;;;12.50;8.00;;;;;11.77;51.49;101252.97;5060046;28;45405;-62
2023/04/26 08:30:15;;;;;;;;;14.25;12.00;;;;;11.86;51.25;101252.84;5059070;28;45308;-61
2023/04/26 08:32:41;;;;;;;;;13.50;10.25;;;;;11.93;51.27;101253.66;5060357;28;46148;-61
2023/04/26 08:35:06;;;;;;;;;12.25;11.50;;;;;12.02;51.00;101256.22;5042159;28;45264;-60
2023/04/26 08:37:32;;;;;;;;;13.25;9.75;;;;;12.07;51.19;101251.75;5060165;28;45395;-61
2023/04/26 08:39:57;;;;;;;;;7.50;6.50;;;;;12.15;51.18;101254.28;5059980;28;45253;-61
2023/04/26 08:42:26;;;;;;;;;8.50;8.50;;;;;12.17;51.10;101236.72;5041758;28;46838;-62
2023/04/26 08:44:52;;;;;;;;;8.50;6.75;;;;;12.27;51.40;101237.47;5058909;28;45400;-61
2023/04/26 08:47:25;;;;;;;;;10.00;8.00;;;;;12.37;51.00;101243.50;5042169;28;45274;-61
2023/04/26 08:49:59;;;;;;;;;11.75;8.50;;;;;12.42;51.05;101244.31;5041925;28;45566;-61
2023/04/26 08:52:29;;;;;;;;;10.25;9.00;;;;;12.48;50.92;101238.94;5060101;28;45406;-61
2023/04/26 08:54:59;;;;;;;;;8.50;6.75;;;;;12.53;50.73;101242.38;5059465;28;45315;-61
2023/04/26 08:57:25;;;;;;;;;8.75;8.00;;;;;12.57;51.03;101241.44;5042025;28;45278;-61
2023/04/26 08:59:52;;;;;;;;;9.25;9.25;;;;;12.64;50.81;101248.38;5059846;28;45486;-61
2023/04/26 09:02:22;;;;;;;;;12.00;9.25;;;;;12.68;51.01;101255.34;5059752;28;47371;-61
2023/04/26 09:04:48;;;;;;;;;9.50;9.50;;;;;12.78;50.68;101253.44;5059203;28;45220;-61
2023/04/26 09:07:24;;;;;;;;;10.00;10.00;;;;;12.83;50.60;101250.75;5059654;28;45300;-61
2023/04/26 09:09:50;;;;;;;;;9.00;7.25;;;;;12.93;50.66;101249.69;5058227;28;45493;-62
2023/04/26 09:12:19;;;;;;;;;12.00;9.75;;;;;13.00;50.78;101237.28;5059682;28;46200;-62
2023/04/26 09:14:45;;;;;;;;;12.00;10.25;;;;;13.08;50.81;101245.94;5058616;28;45633;-62
2023/04/26 09:17:31;;;;;;;;;12.50;9.50;;;;;13.15;50.71;101233.50;5041710;28;45286;-62
2023/04/26 09:19:57;;;;;;;;;10.75;7.25;;;;;13.25;50.62;101229.81;5059636;28;45622;-62
2023/04/26 09:22:31;;;;;;;;;8.75;8.50;;;;;13.36;50.52;101237.53;5059697;28;46308;-62
2023/04/26 09:24:57;;;;;;;;;14.25;9.00;;;;;13.43;50.54;101238.31;5041347;28;45614;-62
2023/04/26 09:27:32;;;;;;;;;9.25;8.75;;;;;13.54;50.51;101232.88;5059468;28;45236;-62
2023/04/26 09:29:59;;;;;;;;;8.25;8.00;;;;;13.63;50.69;101233.56;5059732;28;45268;-62
2023/04/26 09:32:25;;;;;;;;;7.00;7.00;;;;;13.68;50.47;101222.03;5059519;28;45428;-62
2023/04/26 09:34:50;;;;;;;;;9.50;9.50;;;;;13.79;50.39;101220.06;5059447;28;45243;-62
2023/04/26 09:37:16;;;;;;;;;12.00;8.00;;;;;13.88;50.62;101217.22;5041301;28;45436;-62
2023/04/26 09:39:41;;;;;;;;;8.75;8.00;;;;;13.97;50.39;101219.69;5059024;28;45243;-62
2023/04/26 09:42:08;;;;;;;;;9.25;8.75;;;;;14.06;50.50;101229.19;5059511;28;46158;-63
2023/04/26 09:44:34;;;;;;;;;8.50;8.25;;;;;14.16;50.59;101234.28;5059468;28;45432;-63
2023/04/26 09:47:04;;;;;;;;;8.50;7.25;;;;;14.24;50.42;101238.50;5059609;28;45301;-63
2023/04/26 09:49:47;;;;;;;;;10.00;8.50;;;;;14.35;49.98;101229.47;5059135;28;45458;-63
2023/04/26 09:52:14;;;;;;;;;8.75;7.00;;;;;14.40;50.42;101228.47;5058696;28;45260;-62
2023/04/26 09:54:50;;;;;;;;;10.00;9.00;;;;;14.54;50.00;101230.78;5041563;28;45256;-63
2023/04/26 09:57:18;;;;;;;;;10.50;7.75;;;;;14.63;49.92;101227.06;5061473;28;45258;-63
2023/04/26 09:59:47;;;;;;;;;9.50;7.50;;;;;14.75;49.87;101225.94;5062715;28;45368;-63
2023/04/26 10:02:18;;;;;;;;;10.75;9.00;;;;;14.87;50.19;101214.19;5061186;28;46203;-62
2023/04/26 10:04:47;;;;;;;;;7.00;7.00;;;;;14.95;49.65;101210.44;5062466;28;45465;-61
2023/04/26 10:07:15;;;;;;;;;10.00;7.25;;;;;15.07;50.07;101211.06;5046879;28;45416;-62
2023/04/26 10:09:41;;;;;;;;;8.75;7.75;;;;;15.19;50.25;101216.00;5048484;28;45234;-62
2023/04/26 10:12:10;;;;;;;;;7.75;7.50;;;;;15.29;49.65;101206.03;5062328;28;45468;-62
2023/04/26 10:14:36;;;;;;;;;8.00;7.75;;;;;15.43;49.97;101200.38;5062689;28;45418;-62
2023/04/26 10:17:05;;;;;;;;;8.75;8.25;;;;;15.53;50.06;101207.16;5062441;28;45259;-62
2023/04/26 10:19:33;;;;;;;;;6.50;6.25;;;;;15.68;49.84;101202.34;5062270;28;45269;-62
2023/04/26 10:22:11;;;;;;;;;10.50;7.25;;;;;15.80;49.50;101196.72;5062061;28;45392;-62
2023/04/26 10:24:37;;;;;;;;;8.00;8.00;;;;;15.93;49.51;101197.25;5062249;28;45296;-62
2023/04/26 10:27:03;;;;;;;;;7.75;7.75;;;;;16.08;49.56;101203.88;5062440;28;45213;-62
2023/04/26 10:29:53;;;;;;;;;20.75;18.25;;;;;16.23;49.88;101192.81;5062414;28;45512;-62
2023/04/26 10:32:19;;;;;;;;;8.50;7.50;;;;;16.37;49.76;101203.00;5062214;28;45367;-62
2023/04/26 10:35:11;;;;;;;;;7.25;5.50;;;;;16.56;49.72;101199.75;5062190;28;45467;-62
2023/04/26 10:38:02;;;;;;;;;3.75;3.75;;;;;16.71;49.38;101187.78;5061901;28;45383;-62
2023/04/26 10:40:33;;;;;;;;;5.00;5.00;;;;;16.84;49.22;101190.91;5048683;28;45487;-62
2023/04/26 10:43:07;;;;;;;;;4.50;4.50;;;;;16.96;49.14;101184.38;5061952;28;46148;-62
2023/04/26 10:45:33;;;;;;;;;4.00;4.00;;;;;17.04;48.89;101187.59;5062003;28;45300;-62
2023/04/26 10:48:16;;;;;;;;;8.25;5.00;;;;;17.13;48.82;101191.72;5062127;28;45308;-62
2023/04/26 10:51:00;;;;;;;;;4.75;3.75;;;;;17.19;48.90;101187.09;5062075;28;45492;-62
2023/04/26 10:53:51;;;;;;;;;4.75;4.75;;;;;17.21;48.56;101185.22;5061656;28;45229;-64
2023/04/26 10:56:23;;;;;;;;;4.50;4.50;;;;;17.24;48.16;101186.91;5061332;28;45321;-62
2023/04/26 10:59:05;;;;;;;;;5.00;5.00;;;;;17.23;48.25;101182.53;5061890;28;45347;-62
2023/04/26 11:01:31;;;;;;;;;4.00;4.00;;;;;17.24;48.22;101176.28;5061948;28;45285;-62
2023/04/26 11:03:56;;;;;;;;;6.00;5.50;;;;;17.26;47.70;101181.53;5061514;28;45894;-62
2023/04/26 11:06:23;;;;;;;;;4.00;4.00;;;;;17.23;47.68;101179.88;5045572;28;45851;-62
2023/04/26 11:08:49;;;;;;;;;6.00;4.75;;;;;17.18;47.45;101182.69;5054909;28;45385;-62
2023/04/26 11:11:18;;;;;;;;;5.25;3.75;;;;;17.11;47.37;101178.53;5061457;28;45375;-62
2023/04/26 11:13:44;;;;;;;;;5.00;5.00;;;;;17.08;47.55;101175.97;5061395;28;45299;-62
2023/04/26 11:16:11;;;;;;;;;4.75;4.50;;;;;17.03;47.23;101180.56;5061707;28;45292;-62
2023/04/26 11:18:41;;;;;;;;;5.00;4.75;;;;;16.98;47.11;101180.72;5061519;28;45315;-62
2023/04/26 11:21:07;;;;;;;;;3.00;3.00;;;;;16.93;46.99;101182.69;5061639;28;45315;-61
2023/04/26 11:23:34;;;;;;;;;5.50;5.50;;;;;16.90;47.06;101185.38;5042890;28;47815;-61
2023/04/26 11:26:05;;;;;;;;;6.00;4.25;;;;;16.86;46.97;101183.75;5061174;28;45202;-62
2023/04/26 11:28:31;;;;;;;;;7.25;7.25;;;;;16.79;46.58;101168.94;5059885;28;45329;-62
2023/04/26 11:30:57;;;;;;;;;4.75;4.75;;;;;16.77;46.70;101173.47;5061345;28;45210;-61
2023/04/26 11:33:23;;;;;;;;;5.50;4.75;;;;;16.70;46.80;101176.31;5060941;28;46136;-61
2023/04/26 11:35:50;;;;;;;;;6.00;6.00;;;;;16.69;46.82;101166.63;5061214;28;45187;-61
2023/04/26 11:38:16;;;;;;;;;7.50;6.00;;;;;16.65;46.40;101156.16;5059791;28;45358;-62
2023/04/26 11:40:42;;;;;;;;;6.50;6.00;;;;;16.60;46.34;101160.75;5042887;28;45522;-62
2023/04/26 11:43:08;;;;;;;;;6.00;3.75;;;;;16.55;46.39;101166.19;5060919;28;45352;-61